Time;durP1;ratioP1;P1;durP2;ratioP2;P2;SDS_P1;SDS_P2;PMS_P1;PMS_P2;Temp;Humidity;BMP_temperature;BMP_pressure;BME280_temperature;BME280_humidity;BME280_pressure;Samples;Min_cycle;Max_cycle;Signal;HPM_P1;HPM_P2
2022/01/20 00:08:32;;;;;;;26.87;8.13;;;5.30;99.90;;;;;;6740917;88;20552;-76
2022/01/20 00:28:56;;;;;;;27.65;5.68;;;5.10;99.90;;;;;;6738736;88;20196;-76
2022/01/20 00:38:56;;;;;;;27.02;5.70;;;5.10;99.90;;;;;;6740547;88;20186;-76
2022/01/20 00:48:57;;;;;;;27.00;5.37;;;5.00;99.90;;;;;;6744435;88;20181;-76
2022/01/20 00:58:57;;;;;;;31.58;5.62;;;4.90;99.90;;;;;;6751957;88;21125;-74
2022/01/20 01:08:58;;;;;;;23.10;4.87;;;4.70;99.90;;;;;;6743904;88;21041;-75
2022/01/20 01:29:45;;;;;;;22.55;4.70;;;4.30;99.90;;;;;;6739092;88;20749;-75
2022/01/20 01:39:44;;;;;;;31.97;5.00;;;4.10;99.90;;;;;;6736674;88;20633;-75
2022/01/20 01:49:44;;;;;;;29.95;4.87;;;4.20;99.90;;;;;;6735778;88;20239;-75
2022/01/20 01:59:45;;;;;;;28.12;4.90;;;4.10;99.90;;;;;;6741760;88;20220;-75
2022/01/20 02:19:58;;;;;;;31.87;4.45;;;3.70;99.90;;;;;;6741536;88;20184;-75
2022/01/20 02:29:59;;;;;;;24.08;4.00;;;3.70;99.90;;;;;;6744383;88;20189;-75
2022/01/20 02:40:34;;;;;;;21.95;3.72;;;3.80;99.90;;;;;;6736159;88;20212;-75
2022/01/20 02:50:34;;;;;;;20.83;3.42;;;3.90;99.90;;;;;;6735582;88;20790;-75
2022/01/20 03:00:35;;;;;;;19.85;3.22;;;4.00;99.90;;;;;;6741052;88;20189;-75
2022/01/20 03:10:37;;;;;;;22.15;3.33;;;4.20;99.90;;;;;;6741583;88;20225;-75
2022/01/20 03:20:38;;;;;;;20.40;2.45;;;4.20;99.90;;;;;;6746326;88;20205;-75
2022/01/20 03:30:39;;;;;;;20.77;2.35;;;4.10;99.90;;;;;;6748931;88;20693;-75
2022/01/20 03:40:39;;;;;;;18.00;2.60;;;4.00;99.90;;;;;;6737489;88;20197;-75
2022/01/20 04:00:59;;;;;;;23.58;2.15;;;4.00;99.90;;;;;;6746586;88;20696;-75
2022/01/20 04:11:12;;;;;;;13.13;2.15;;;3.80;99.90;;;;;;6742741;88;20206;-74
2022/01/20 04:21:12;;;;;;;14.75;2.10;;;3.70;99.90;;;;;;6737295;88;20178;-75
2022/01/20 04:31:13;;;;;;;11.35;1.62;;;3.80;99.90;;;;;;6742523;88;20736;-75
2022/01/20 04:41:13;;;;;;;11.20;2.20;;;3.90;99.90;;;;;;6730297;88;20693;-75
2022/01/20 05:01:33;;;;;;;14.18;2.37;;;4.00;99.90;;;;;;6746401;88;20175;-78
2022/01/20 05:11:36;;;;;;;14.23;2.25;;;4.10;99.90;;;;;;6755767;87;20704;-77
2022/01/20 05:21:36;;;;;;;11.07;1.80;;;4.10;99.90;;;;;;6757318;87;20223;-78
2022/01/20 05:31:37;;;;;;;12.80;2.03;;;4.20;99.90;;;;;;6757694;88;20413;-77
2022/01/20 05:41:37;;;;;;;18.30;2.20;;;4.10;99.90;;;;;;6761531;88;20230;-77
2022/01/20 05:51:39;;;;;;;13.13;2.00;;;4.10;99.90;;;;;;6757529;87;20733;-77
2022/01/20 06:01:40;;;;;;;9.23;1.90;;;4.20;99.90;;;;;;6755708;88;20809;-77
2022/01/20 06:11:40;;;;;;;12.48;2.17;;;4.10;99.90;;;;;;6749271;87;20188;-77
2022/01/20 06:21:41;;;;;;;8.32;1.83;;;4.10;99.90;;;;;;6737912;88;20180;-79
2022/01/20 06:31:42;;;;;;;10.80;2.00;;;4.20;99.90;;;;;;6754910;88;20199;-77
2022/01/20 06:41:42;;;;;;;8.65;3.03;;;4.20;99.90;;;;;;6755012;88;20202;-77
2022/01/20 06:51:43;;;;;;;13.07;3.95;;;4.20;99.90;;;;;;6750744;87;20196;-77
2022/01/20 07:01:46;;;;;;;14.98;4.12;;;4.20;99.90;;;;;;6756166;88;20192;-78
2022/01/20 07:11:46;;;;;;;12.23;4.90;;;3.90;99.90;;;;;;6760419;88;20223;-78
2022/01/20 07:21:47;;;;;;;14.15;4.18;;;3.50;99.90;;;;;;6757087;88;20589;-78
2022/01/20 07:31:47;;;;;;;10.05;2.00;;;3.40;99.90;;;;;;6756041;88;20203;-77
2022/01/20 07:41:48;;;;;;;15.38;1.60;;;3.40;99.90;;;;;;6756336;88;20296;-78
2022/01/20 07:51:49;;;;;;;16.57;2.90;;;3.10;99.90;;;;;;6749779;87;20263;-77
2022/01/20 08:01:50;;;;;;;17.05;3.00;;;3.20;99.90;;;;;;6732631;88;20497;-76
2022/01/20 08:11:51;;;;;;;17.42;2.95;;;3.30;99.90;;;;;;6735793;88;20664;-77
2022/01/20 08:21:51;;;;;;;10.57;2.10;;;3.40;99.90;;;;;;6735711;88;20208;-77
2022/01/20 08:31:52;;;;;;;14.75;1.70;;;3.60;99.90;;;;;;6746535;88;20307;-77
2022/01/20 08:41:52;;;;;;;17.27;2.47;;;3.60;99.90;;;;;;6752171;88;20399;-77
2022/01/20 08:51:53;;;;;;;13.68;1.85;;;3.60;99.90;;;;;;6748329;87;20552;-77
2022/01/20 09:01:53;;;;;;;8.18;1.37;;;3.70;99.90;;;;;;6752547;88;20210;-77
2022/01/20 09:12:04;;;;;;;9.27;1.42;;;3.80;99.90;;;;;;6736337;88;22575;-77
2022/01/20 09:22:05;;;;;;;17.42;1.92;;;3.90;99.90;;;;;;6738201;88;20261;-76
2022/01/20 09:32:09;;;;;;;15.50;1.85;;;3.80;99.90;;;;;;6749947;88;20236;-76
2022/01/20 09:42:09;;;;;;;17.77;2.37;;;3.90;99.90;;;;;;6738428;88;20181;-75
2022/01/20 09:52:10;;;;;;;14.52;1.92;;;3.90;99.90;;;;;;6736079;87;20678;-75
2022/01/20 10:02:18;;;;;;;7.43;1.25;;;4.00;99.90;;;;;;6739590;87;20196;-75
2022/01/20 10:12:19;;;;;;;6.07;0.80;;;4.60;99.90;;;;;;6740157;88;20216;-76
2022/01/20 10:22:23;;;;;;;5.22;0.82;;;4.60;99.90;;;;;;6740822;87;20294;-75
2022/01/20 10:32:24;;;;;;;4.15;0.70;;;4.50;99.90;;;;;;6738820;88;20216;-76
2022/01/20 10:42:27;;;;;;;5.82;0.93;;;4.40;99.90;;;;;;6739940;88;20208;-76
2022/01/20 10:52:35;;;;;;;8.65;1.17;;;4.30;99.90;;;;;;6747004;76;20643;-73
2022/01/20 11:02:36;;;;;;;6.37;1.23;;;4.80;99.90;;;;;;6727382;88;20266;-73
2022/01/20 11:12:37;;;;;;;9.67;1.17;;;6.20;99.90;;;;;;6736680;88;20310;-73
2022/01/20 11:22:59;;;;;;;9.00;1.25;;;5.60;99.90;;;;;;6736663;88;20974;-75
2022/01/20 11:33:03;;;;;;;7.32;1.37;;;5.10;99.90;;;;;;6742342;88;20664;-74
2022/01/20 11:43:10;;;;;;;5.87;1.08;;;5.40;99.90;;;;;;6730488;88;20224;-75
2022/01/20 11:53:17;;;;;;;8.90;1.17;;;6.20;99.90;;;;;;6727473;88;20217;-75
2022/01/20 12:03:17;;;;;;;6.75;1.10;;;6.10;99.90;;;;;;6727890;88;20598;-74
2022/01/20 12:13:18;;;;;;;9.10;1.40;;;5.30;99.90;;;;;;6731977;88;20659;-74
2022/01/20 12:23:24;;;;;;;9.50;1.80;;;5.20;99.90;;;;;;6730854;88;20201;-73
2022/01/20 12:33:27;;;;;;;8.10;2.00;;;4.90;99.90;;;;;;6726726;88;20701;-74
2022/01/20 12:43:39;;;;;;;11.88;1.80;;;4.80;99.90;;;;;;6727825;88;20204;-73
2022/01/20 12:53:54;;;;;;;11.85;1.62;;;4.70;99.90;;;;;;6728975;88;20369;-74
2022/01/20 13:03:58;;;;;;;10.15;1.90;;;5.20;99.90;;;;;;6727682;88;20760;-74
2022/01/20 13:14:00;;;;;;;9.80;2.00;;;6.20;99.90;;;;;;6725177;88;20259;-74
2022/01/20 13:24:02;;;;;;;15.52;1.83;;;5.50;99.90;;;;;;6729837;88;20226;-73
2022/01/20 13:34:18;;;;;;;12.13;1.75;;;5.00;99.90;;;;;;6731294;88;20225;-73
2022/01/20 13:54:44;;;;;;;8.27;1.80;;;4.90;99.90;;;;;;6732607;88;20506;-74
2022/01/20 14:04:44;;;;;;;12.17;1.53;;;4.80;99.90;;;;;;6734504;88;20177;-75
2022/01/20 14:14:45;;;;;;;7.37;1.10;;;4.90;99.90;;;;;;6741729;88;20204;-72
2022/01/20 14:24:45;;;;;;;11.02;1.80;;;4.80;99.90;;;;;;6734363;88;20646;-73
2022/01/20 14:34:46;;;;;;;8.27;1.60;;;4.80;99.90;;;;;;6732391;88;20210;-76
2022/01/20 14:44:49;;;;;;;8.13;1.58;;;4.60;99.90;;;;;;6731358;88;20204;-73
2022/01/20 14:54:50;;;;;;;8.05;1.23;;;4.70;99.90;;;;;;6727937;88;20313;-75
2022/01/20 15:04:52;;;;;;;10.02;1.80;;;4.60;99.90;;;;;;6731974;88;20209;-74
2022/01/20 15:14:53;;;;;;;9.93;1.62;;;4.70;99.90;;;;;;6731778;88;20370;-75
2022/01/20 15:24:53;;;;;;;9.77;1.25;;;4.40;99.90;;;;;;6731526;88;20702;-73
2022/01/20 15:34:54;;;;;;;5.97;0.80;;;4.10;99.90;;;;;;6731775;88;20241;-73
2022/01/20 15:44:54;;;;;;;7.05;1.00;;;4.10;99.90;;;;;;6731481;88;20509;-74
2022/01/20 15:54:55;;;;;;;5.47;1.30;;;3.90;99.90;;;;;;6731201;88;20212;-74
2022/01/20 16:04:55;;;;;;;8.93;1.52;;;3.80;99.90;;;;;;6730589;88;20181;-76
2022/01/20 16:14:56;;;;;;;6.97;1.45;;;3.90;99.90;;;;;;6728427;88;20213;-75
2022/01/20 16:24:56;;;;;;;11.33;1.20;;;4.00;99.90;;;;;;6729615;88;20213;-75
2022/01/20 16:34:57;;;;;;;6.47;0.93;;;3.70;99.90;;;;;;6726265;88;20563;-75
2022/01/20 16:44:58;;;;;;;5.22;0.95;;;3.40;99.90;;;;;;6728413;88;20238;-76
2022/01/20 16:54:58;;;;;;;6.03;1.17;;;3.20;99.90;;;;;;6734181;77;20672;-76
2022/01/20 17:04:59;;;;;;;5.87;1.35;;;3.10;99.90;;;;;;6744924;88;20560;-76
2022/01/20 17:15:00;;;;;;;8.05;1.70;;;3.20;99.90;;;;;;6748907;88;20219;-76
2022/01/20 17:25:00;;;;;;;7.32;1.70;;;3.20;99.90;;;;;;6738932;88;20531;-78
2022/01/20 17:35:02;;;;;;;6.25;1.42;;;3.00;99.90;;;;;;6746149;88;20275;-77
2022/01/20 17:45:03;;;;;;;13.45;2.47;;;2.80;99.90;;;;;;6748140;88;20501;-77
2022/01/20 17:55:04;;;;;;;8.43;1.83;;;2.60;99.90;;;;;;6746175;88;20293;-76
2022/01/20 18:05:06;;;;;;;9.20;1.60;;;2.50;99.90;;;;;;6738497;88;20187;-79
2022/01/20 18:15:09;;;;;;;13.60;2.17;;;2.50;99.90;;;;;;6749450;88;20610;-77
2022/01/20 18:25:11;;;;;;;11.63;1.73;;;2.60;99.90;;;;;;6739006;88;20370;-77
2022/01/20 18:35:13;;;;;;;13.30;2.22;;;2.50;99.90;;;;;;6742013;88;20214;-78
2022/01/20 18:45:16;;;;;;;8.07;2.25;;;2.40;99.90;;;;;;6740527;88;20724;-80
2022/01/20 18:55:18;;;;;;;12.95;2.08;;;2.40;99.90;;;;;;6740207;88;20696;-79
2022/01/20 19:05:19;;;;;;;14.45;1.92;;;2.50;99.90;;;;;;6743712;88;20192;-79
2022/01/20 19:15:21;;;;;;;10.10;1.85;;;2.50;99.90;;;;;;6743335;88;20184;-79
2022/01/20 19:25:21;;;;;;;8.23;1.80;;;2.30;99.90;;;;;;6742731;88;20223;-77
2022/01/20 19:35:23;;;;;;;12.95;2.20;;;2.40;99.90;;;;;;6743978;88;20206;-78
2022/01/20 19:45:23;;;;;;;9.85;1.80;;;2.50;99.90;;;;;;6759201;88;20200;-79
2022/01/20 19:55:25;;;;;;;17.83;2.40;;;2.40;99.90;;;;;;6765245;88;20667;-79
2022/01/20 20:05:26;;;;;;;9.68;2.22;;;2.40;99.90;;;;;;6759886;88;20515;-79
2022/01/20 20:15:26;;;;;;;10.65;2.10;;;2.30;99.90;;;;;;6762327;88;20207;-79
2022/01/20 20:25:27;;;;;;;9.98;2.53;;;2.30;99.90;;;;;;6755120;88;23452;-78
2022/01/20 20:35:29;;;;;;;13.52;2.30;;;2.30;99.90;;;;;;6737971;88;20224;-77
2022/01/20 20:45:32;;;;;;;8.70;1.95;;;2.10;99.90;;;;;;6740468;88;20177;-78
2022/01/20 20:55:32;;;;;;;12.05;2.33;;;2.00;99.90;;;;;;6741183;88;20212;-79
2022/01/20 21:05:35;;;;;;;11.02;2.90;;;1.90;99.90;;;;;;6741556;88;20188;-78
2022/01/20 21:15:35;;;;;;;10.95;3.15;;;1.80;99.90;;;;;;6742206;88;20185;-79
2022/01/20 21:25:36;;;;;;;10.30;2.60;;;1.60;99.90;;;;;;6739190;88;20639;-79
2022/01/20 21:35:37;;;;;;;9.73;2.42;;;1.70;99.90;;;;;;6742254;88;20188;-80
2022/01/20 21:45:37;;;;;;;7.72;2.40;;;1.90;99.90;;;;;;6738883;88;20307;-77
2022/01/20 21:55:38;;;;;;;13.68;2.17;;;1.90;99.90;;;;;;6744685;88;20605;-78
2022/01/20 22:05:38;;;;;;;14.93;2.43;;;1.90;99.90;;;;;;6744948;88;20196;-76
2022/01/20 22:15:39;;;;;;;10.27;2.60;;;2.00;99.90;;;;;;6745544;88;20543;-80
2022/01/20 22:25:41;;;;;;;14.00;2.05;;;1.90;99.90;;;;;;6745728;88;20701;-78
2022/01/20 22:35:42;;;;;;;13.40;2.45;;;1.90;99.90;;;;;;6745463;88;20228;-78
2022/01/20 22:45:43;;;;;;;10.95;2.15;;;1.90;99.90;;;;;;6745665;88;20216;-79
2022/01/20 22:55:43;;;;;;;10.00;2.20;;;1.90;99.90;;;;;;6752186;77;20185;-75
2022/01/20 23:05:45;;;;;;;13.82;2.47;;;1.60;99.90;;;;;;6747974;88;20579;-75
2022/01/20 23:15:57;;;;;;;14.98;2.58;;;1.70;99.90;;;;;;6753771;88;20206;-75
2022/01/20 23:26:06;;;;;;;11.88;2.30;;;1.50;99.90;;;;;;6752556;88;20582;-75
2022/01/20 23:36:07;;;;;;;12.75;2.00;;;1.20;99.90;;;;;;6749920;88;20168;-75
2022/01/20 23:56:27;;;;;;;10.63;1.77;;;1.30;99.90;;;;;;6752663;88;20192;-74
